Terminal Aerodrome Forecast
Issued by NWS Pueblo, CO

Home | Current Version | Previous Version | Text Only | Print | Product List | Glossary On
Versions: 1 2 3 4 5 6 7 8 9 10 11 12 13 14 15 16 17 18 19 20 21 22 23 24 25
000
FTUS45 KPUB 061726
TAFALS
TAF
KALS 061726Z 0618/0718 21015G25KT P6SM SCT100 SCT150
     FM062000 22015G25KT P6SM SCT080 BKN140
     FM070300 22014KT P6SM SCT060 BKN120
     FM071500 26011KT P6SM SCT040 BKN060=

USA.gov is the U.S. government's official web portal to all federal, state and local government web resources and services.